sensor_id;sensor_type;location;lat;lon;timestamp;P1;durP1;ratioP1;P2;durP2;ratioP2
76292;SDS011;67256;51.154;4.164;2024-03-08T00:01:09;45.17;;;26.65;;
76292;SDS011;67256;51.154;4.164;2024-03-08T00:03:35;50.17;;;27.92;;
76292;SDS011;67256;51.154;4.164;2024-03-08T00:06:01;46.53;;;27.75;;
76292;SDS011;67256;51.154;4.164;2024-03-08T00:08:27;44.17;;;27.58;;
76292;SDS011;67256;51.154;4.164;2024-03-08T00:10:53;47.17;;;28.60;;
76292;SDS011;67256;51.154;4.164;2024-03-08T00:13:19;40.60;;;26.10;;
76292;SDS011;67256;51.154;4.164;2024-03-08T00:15:45;51.63;;;28.75;;
76292;SDS011;67256;51.154;4.164;2024-03-08T00:18:10;53.00;;;29.25;;
76292;SDS011;67256;51.154;4.164;2024-03-08T00:20:36;46.53;;;27.88;;
76292;SDS011;67256;51.154;4.164;2024-03-08T00:23:02;47.88;;;28.73;;
76292;SDS011;67256;51.154;4.164;2024-03-08T00:25:28;46.15;;;27.33;;
76292;SDS011;67256;51.154;4.164;2024-03-08T00:27:54;47.13;;;28.77;;
76292;SDS011;67256;51.154;4.164;2024-03-08T00:30:21;49.30;;;29.60;;
76292;SDS011;67256;51.154;4.164;2024-03-08T00:32:50;47.45;;;28.38;;
76292;SDS011;67256;51.154;4.164;2024-03-08T00:35:16;49.15;;;27.60;;
76292;SDS011;67256;51.154;4.164;2024-03-08T00:37:43;48.38;;;27.60;;
76292;SDS011;67256;51.154;4.164;2024-03-08T00:40:11;44.60;;;25.52;;
76292;SDS011;67256;51.154;4.164;2024-03-08T00:42:37;48.13;;;27.60;;
76292;SDS011;67256;51.154;4.164;2024-03-08T00:45:05;47.95;;;27.70;;
76292;SDS011;67256;51.154;4.164;2024-03-08T00:47:31;43.60;;;28.17;;
76292;SDS011;67256;51.154;4.164;2024-03-08T00:49:57;47.65;;;27.83;;
76292;SDS011;67256;51.154;4.164;2024-03-08T00:52:23;49.20;;;27.20;;
76292;SDS011;67256;51.154;4.164;2024-03-08T00:54:51;45.45;;;27.48;;
76292;SDS011;67256;51.154;4.164;2024-03-08T00:57:17;42.50;;;26.65;;
76292;SDS011;67256;51.154;4.164;2024-03-08T00:59:43;42.95;;;26.58;;
76292;SDS011;67256;51.154;4.164;2024-03-08T01:02:08;46.83;;;26.77;;
76292;SDS011;67256;51.154;4.164;2024-03-08T01:04:34;43.28;;;26.77;;
76292;SDS011;67256;51.154;4.164;2024-03-08T01:07:00;47.40;;;26.75;;
76292;SDS011;67256;51.154;4.164;2024-03-08T01:09:26;42.35;;;25.63;;
76292;SDS011;67256;51.154;4.164;2024-03-08T01:11:53;42.15;;;25.70;;
76292;SDS011;67256;51.154;4.164;2024-03-08T01:14:19;43.30;;;26.85;;
76292;SDS011;67256;51.154;4.164;2024-03-08T01:16:49;45.00;;;27.20;;
76292;SDS011;67256;51.154;4.164;2024-03-08T01:19:15;45.60;;;25.77;;
76292;SDS011;67256;51.154;4.164;2024-03-08T01:21:41;43.83;;;25.70;;
76292;SDS011;67256;51.154;4.164;2024-03-08T01:24:07;44.88;;;26.58;;
76292;SDS011;67256;51.154;4.164;2024-03-08T01:26:33;42.30;;;27.02;;
76292;SDS011;67256;51.154;4.164;2024-03-08T01:29:02;45.93;;;27.27;;
76292;SDS011;67256;51.154;4.164;2024-03-08T01:31:31;40.78;;;25.40;;
76292;SDS011;67256;51.154;4.164;2024-03-08T01:36:23;49.30;;;26.05;;
76292;SDS011;67256;51.154;4.164;2024-03-08T01:38:50;43.47;;;25.80;;
76292;SDS011;67256;51.154;4.164;2024-03-08T01:41:16;44.10;;;25.83;;
76292;SDS011;67256;51.154;4.164;2024-03-08T01:43:43;45.78;;;26.23;;
76292;SDS011;67256;51.154;4.164;2024-03-08T01:46:09;44.90;;;27.58;;
76292;SDS011;67256;51.154;4.164;2024-03-08T01:48:44;39.08;;;26.08;;
76292;SDS011;67256;51.154;4.164;2024-03-08T01:51:11;38.33;;;25.33;;
76292;SDS011;67256;51.154;4.164;2024-03-08T01:53:39;41.53;;;25.80;;
76292;SDS011;67256;51.154;4.164;2024-03-08T01:56:07;46.17;;;25.85;;
76292;SDS011;67256;51.154;4.164;2024-03-08T01:58:33;39.35;;;26.25;;
76292;SDS011;67256;51.154;4.164;2024-03-08T02:01:00;42.05;;;26.83;;
76292;SDS011;67256;51.154;4.164;2024-03-08T02:03:28;39.65;;;27.17;;
76292;SDS011;67256;51.154;4.164;2024-03-08T02:05:56;37.53;;;26.92;;
76292;SDS011;67256;51.154;4.164;2024-03-08T02:08:24;39.83;;;26.23;;
76292;SDS011;67256;51.154;4.164;2024-03-08T02:10:50;41.65;;;25.63;;
76292;SDS011;67256;51.154;4.164;2024-03-08T02:13:16;40.25;;;26.25;;
76292;SDS011;67256;51.154;4.164;2024-03-08T02:15:55;41.20;;;25.33;;
76292;SDS011;67256;51.154;4.164;2024-03-08T02:18:22;36.50;;;24.85;;
76292;SDS011;67256;51.154;4.164;2024-03-08T02:20:54;36.35;;;25.08;;
76292;SDS011;67256;51.154;4.164;2024-03-08T02:23:22;39.15;;;24.83;;
76292;SDS011;67256;51.154;4.164;2024-03-08T02:25:48;40.95;;;25.60;;
76292;SDS011;67256;51.154;4.164;2024-03-08T02:28:14;38.25;;;25.20;;
76292;SDS011;67256;51.154;4.164;2024-03-08T02:30:41;39.85;;;25.90;;
76292;SDS011;67256;51.154;4.164;2024-03-08T02:33:07;39.28;;;26.13;;
76292;SDS011;67256;51.154;4.164;2024-03-08T02:35:34;40.40;;;25.67;;
76292;SDS011;67256;51.154;4.164;2024-03-08T02:38:01;37.60;;;23.52;;
76292;SDS011;67256;51.154;4.164;2024-03-08T02:40:28;38.05;;;26.25;;
76292;SDS011;67256;51.154;4.164;2024-03-08T02:42:54;35.40;;;24.80;;
76292;SDS011;67256;51.154;4.164;2024-03-08T02:45:20;36.63;;;25.63;;
76292;SDS011;67256;51.154;4.164;2024-03-08T02:47:46;37.85;;;24.10;;
76292;SDS011;67256;51.154;4.164;2024-03-08T02:50:14;33.40;;;24.10;;
76292;SDS011;67256;51.154;4.164;2024-03-08T02:52:41;38.40;;;24.42;;
76292;SDS011;67256;51.154;4.164;2024-03-08T02:55:11;36.85;;;23.52;;
76292;SDS011;67256;51.154;4.164;2024-03-08T02:57:40;35.30;;;25.52;;
76292;SDS011;67256;51.154;4.164;2024-03-08T03:00:06;34.80;;;24.98;;
76292;SDS011;67256;51.154;4.164;2024-03-08T03:02:35;35.23;;;23.93;;
76292;SDS011;67256;51.154;4.164;2024-03-08T03:05:02;41.67;;;26.88;;
76292;SDS011;67256;51.154;4.164;2024-03-08T03:07:31;35.40;;;23.93;;
76292;SDS011;67256;51.154;4.164;2024-03-08T03:10:02;41.63;;;23.30;;
76292;SDS011;67256;51.154;4.164;2024-03-08T03:12:29;34.20;;;23.13;;
76292;SDS011;67256;51.154;4.164;2024-03-08T03:14:55;34.88;;;24.15;;
76292;SDS011;67256;51.154;4.164;2024-03-08T03:17:22;36.72;;;24.70;;
76292;SDS011;67256;51.154;4.164;2024-03-08T03:19:49;32.65;;;23.55;;
76292;SDS011;67256;51.154;4.164;2024-03-08T03:22:16;33.20;;;23.90;;
76292;SDS011;67256;51.154;4.164;2024-03-08T03:24:43;37.42;;;25.60;;
76292;SDS011;67256;51.154;4.164;2024-03-08T03:27:11;38.50;;;23.73;;
76292;SDS011;67256;51.154;4.164;2024-03-08T03:29:41;35.60;;;24.15;;
76292;SDS011;67256;51.154;4.164;2024-03-08T03:32:10;34.33;;;24.13;;
76292;SDS011;67256;51.154;4.164;2024-03-08T03:34:37;34.65;;;24.35;;
76292;SDS011;67256;51.154;4.164;2024-03-08T03:37:03;31.52;;;23.23;;
76292;SDS011;67256;51.154;4.164;2024-03-08T03:39:30;35.20;;;24.60;;
76292;SDS011;67256;51.154;4.164;2024-03-08T03:41:59;35.65;;;23.70;;
76292;SDS011;67256;51.154;4.164;2024-03-08T03:44:28;30.85;;;23.27;;
76292;SDS011;67256;51.154;4.164;2024-03-08T03:46:54;40.75;;;23.77;;
76292;SDS011;67256;51.154;4.164;2024-03-08T03:49:20;37.50;;;25.55;;
76292;SDS011;67256;51.154;4.164;2024-03-08T03:51:46;33.45;;;22.83;;
76292;SDS011;67256;51.154;4.164;2024-03-08T03:54:12;33.40;;;23.88;;
76292;SDS011;67256;51.154;4.164;2024-03-08T03:56:38;34.60;;;23.17;;
76292;SDS011;67256;51.154;4.164;2024-03-08T03:59:05;30.83;;;22.73;;
76292;SDS011;67256;51.154;4.164;2024-03-08T04:01:31;30.50;;;23.65;;
76292;SDS011;67256;51.154;4.164;2024-03-08T04:03:58;36.15;;;22.52;;
76292;SDS011;67256;51.154;4.164;2024-03-08T04:06:24;34.42;;;24.10;;
76292;SDS011;67256;51.154;4.164;2024-03-08T04:08:50;34.58;;;23.30;;
76292;SDS011;67256;51.154;4.164;2024-03-08T04:11:15;35.20;;;23.58;;
76292;SDS011;67256;51.154;4.164;2024-03-08T04:13:42;32.28;;;23.83;;
76292;SDS011;67256;51.154;4.164;2024-03-08T04:16:08;34.55;;;24.63;;
76292;SDS011;67256;51.154;4.164;2024-03-08T04:18:36;30.58;;;23.60;;
76292;SDS011;67256;51.154;4.164;2024-03-08T04:21:03;32.05;;;23.08;;
76292;SDS011;67256;51.154;4.164;2024-03-08T04:23:31;27.23;;;20.93;;
76292;SDS011;67256;51.154;4.164;2024-03-08T04:26:00;34.97;;;24.08;;
76292;SDS011;67256;51.154;4.164;2024-03-08T04:28:25;30.90;;;22.85;;
76292;SDS011;67256;51.154;4.164;2024-03-08T04:30:52;33.47;;;23.25;;
76292;SDS011;67256;51.154;4.164;2024-03-08T04:33:17;32.88;;;23.00;;
76292;SDS011;67256;51.154;4.164;2024-03-08T04:35:43;31.40;;;24.52;;
76292;SDS011;67256;51.154;4.164;2024-03-08T04:38:10;34.58;;;23.80;;
76292;SDS011;67256;51.154;4.164;2024-03-08T04:40:36;33.00;;;24.13;;
76292;SDS011;67256;51.154;4.164;2024-03-08T04:43:02;33.28;;;24.13;;
76292;SDS011;67256;51.154;4.164;2024-03-08T04:45:28;32.85;;;23.83;;
76292;SDS011;67256;51.154;4.164;2024-03-08T04:47:54;34.17;;;24.55;;
76292;SDS011;67256;51.154;4.164;2024-03-08T04:50:20;33.03;;;23.15;;
76292;SDS011;67256;51.154;4.164;2024-03-08T04:52:45;30.42;;;21.77;;
76292;SDS011;67256;51.154;4.164;2024-03-08T04:55:11;36.40;;;23.30;;
76292;SDS011;67256;51.154;4.164;2024-03-08T04:57:37;33.63;;;23.73;;
76292;SDS011;67256;51.154;4.164;2024-03-08T05:00:03;31.25;;;21.73;;
76292;SDS011;67256;51.154;4.164;2024-03-08T05:02:36;36.35;;;23.88;;
76292;SDS011;67256;51.154;4.164;2024-03-08T05:05:04;33.25;;;24.20;;
76292;SDS011;67256;51.154;4.164;2024-03-08T05:07:31;31.25;;;22.90;;
76292;SDS011;67256;51.154;4.164;2024-03-08T05:09:58;34.17;;;23.90;;
76292;SDS011;67256;51.154;4.164;2024-03-08T05:12:24;36.03;;;24.23;;
76292;SDS011;67256;51.154;4.164;2024-03-08T05:14:50;39.50;;;23.23;;
76292;SDS011;67256;51.154;4.164;2024-03-08T05:17:15;32.42;;;22.92;;
76292;SDS011;67256;51.154;4.164;2024-03-08T05:19:42;34.83;;;23.60;;
76292;SDS011;67256;51.154;4.164;2024-03-08T05:22:08;35.83;;;23.25;;
76292;SDS011;67256;51.154;4.164;2024-03-08T05:24:34;32.83;;;24.30;;
76292;SDS011;67256;51.154;4.164;2024-03-08T05:27:00;33.45;;;24.50;;
76292;SDS011;67256;51.154;4.164;2024-03-08T05:29:28;38.38;;;24.10;;
76292;SDS011;67256;51.154;4.164;2024-03-08T05:31:54;37.67;;;23.70;;
76292;SDS011;67256;51.154;4.164;2024-03-08T05:34:20;31.50;;;23.40;;
76292;SDS011;67256;51.154;4.164;2024-03-08T05:36:47;32.63;;;24.13;;
76292;SDS011;67256;51.154;4.164;2024-03-08T05:39:14;34.72;;;24.17;;
76292;SDS011;67256;51.154;4.164;2024-03-08T05:41:42;32.15;;;23.85;;
76292;SDS011;67256;51.154;4.164;2024-03-08T05:44:08;35.40;;;24.52;;
76292;SDS011;67256;51.154;4.164;2024-03-08T05:46:35;35.50;;;25.65;;
76292;SDS011;67256;51.154;4.164;2024-03-08T05:49:03;32.83;;;24.05;;
76292;SDS011;67256;51.154;4.164;2024-03-08T05:51:33;36.40;;;25.95;;
76292;SDS011;67256;51.154;4.164;2024-03-08T05:54:00;40.72;;;25.38;;
76292;SDS011;67256;51.154;4.164;2024-03-08T05:56:30;35.53;;;24.58;;
76292;SDS011;67256;51.154;4.164;2024-03-08T05:58:57;35.10;;;24.33;;
76292;SDS011;67256;51.154;4.164;2024-03-08T06:01:25;39.72;;;25.40;;
76292;SDS011;67256;51.154;4.164;2024-03-08T06:03:54;32.42;;;23.35;;
76292;SDS011;67256;51.154;4.164;2024-03-08T06:06:22;33.00;;;23.30;;
76292;SDS011;67256;51.154;4.164;2024-03-08T06:08:48;33.08;;;23.70;;
76292;SDS011;67256;51.154;4.164;2024-03-08T06:11:15;32.97;;;24.50;;
76292;SDS011;67256;51.154;4.164;2024-03-08T06:13:43;36.88;;;23.08;;
76292;SDS011;67256;51.154;4.164;2024-03-08T06:16:09;39.63;;;25.27;;
76292;SDS011;67256;51.154;4.164;2024-03-08T06:18:35;36.92;;;23.92;;
76292;SDS011;67256;51.154;4.164;2024-03-08T06:21:07;33.58;;;23.90;;
76292;SDS011;67256;51.154;4.164;2024-03-08T06:23:41;34.17;;;24.83;;
76292;SDS011;67256;51.154;4.164;2024-03-08T06:26:07;31.60;;;23.60;;
76292;SDS011;67256;51.154;4.164;2024-03-08T06:28:33;31.58;;;23.15;;
76292;SDS011;67256;51.154;4.164;2024-03-08T06:31:00;32.97;;;24.63;;
76292;SDS011;67256;51.154;4.164;2024-03-08T06:33:26;35.72;;;24.52;;
76292;SDS011;67256;51.154;4.164;2024-03-08T06:35:55;37.50;;;24.52;;
76292;SDS011;67256;51.154;4.164;2024-03-08T06:38:22;34.78;;;24.08;;
76292;SDS011;67256;51.154;4.164;2024-03-08T06:40:52;33.20;;;23.38;;
76292;SDS011;67256;51.154;4.164;2024-03-08T06:43:18;31.52;;;22.98;;
76292;SDS011;67256;51.154;4.164;2024-03-08T06:45:44;35.70;;;24.92;;
76292;SDS011;67256;51.154;4.164;2024-03-08T06:48:16;35.20;;;24.23;;
76292;SDS011;67256;51.154;4.164;2024-03-08T06:50:46;40.45;;;23.83;;
76292;SDS011;67256;51.154;4.164;2024-03-08T06:53:12;36.22;;;24.35;;
76292;SDS011;67256;51.154;4.164;2024-03-08T06:55:38;34.47;;;24.15;;
76292;SDS011;67256;51.154;4.164;2024-03-08T06:58:07;31.83;;;23.73;;
76292;SDS011;67256;51.154;4.164;2024-03-08T07:00:33;39.63;;;24.80;;
76292;SDS011;67256;51.154;4.164;2024-03-08T07:02:59;37.00;;;24.48;;
76292;SDS011;67256;51.154;4.164;2024-03-08T07:05:28;42.50;;;26.02;;
76292;SDS011;67256;51.154;4.164;2024-03-08T07:07:55;29.67;;;22.15;;
76292;SDS011;67256;51.154;4.164;2024-03-08T07:10:21;34.05;;;24.08;;
76292;SDS011;67256;51.154;4.164;2024-03-08T07:12:49;34.00;;;22.98;;
76292;SDS011;67256;51.154;4.164;2024-03-08T07:15:15;35.60;;;24.33;;
76292;SDS011;67256;51.154;4.164;2024-03-08T07:17:41;35.47;;;25.10;;
76292;SDS011;67256;51.154;4.164;2024-03-08T07:20:09;31.95;;;23.60;;
76292;SDS011;67256;51.154;4.164;2024-03-08T07:22:38;37.03;;;23.80;;
76292;SDS011;67256;51.154;4.164;2024-03-08T07:25:07;37.55;;;24.58;;
76292;SDS011;67256;51.154;4.164;2024-03-08T07:27:46;33.20;;;24.10;;
76292;SDS011;67256;51.154;4.164;2024-03-08T07:30:16;32.75;;;23.02;;
76292;SDS011;67256;51.154;4.164;2024-03-08T07:33:02;33.35;;;23.58;;
76292;SDS011;67256;51.154;4.164;2024-03-08T07:35:28;39.05;;;23.67;;
76292;SDS011;67256;51.154;4.164;2024-03-08T07:37:56;39.33;;;24.75;;
76292;SDS011;67256;51.154;4.164;2024-03-08T07:40:22;38.45;;;24.00;;
76292;SDS011;67256;51.154;4.164;2024-03-08T07:42:51;35.85;;;24.42;;
76292;SDS011;67256;51.154;4.164;2024-03-08T07:45:17;35.80;;;23.92;;
76292;SDS011;67256;51.154;4.164;2024-03-08T07:47:43;35.38;;;23.83;;
76292;SDS011;67256;51.154;4.164;2024-03-08T07:50:09;37.75;;;23.60;;
76292;SDS011;67256;51.154;4.164;2024-03-08T07:52:35;33.70;;;24.02;;
76292;SDS011;67256;51.154;4.164;2024-03-08T07:55:04;40.20;;;25.42;;
76292;SDS011;67256;51.154;4.164;2024-03-08T07:57:31;30.70;;;22.75;;
76292;SDS011;67256;51.154;4.164;2024-03-08T07:59:57;43.75;;;23.85;;
76292;SDS011;67256;51.154;4.164;2024-03-08T08:02:23;35.95;;;22.30;;
76292;SDS011;67256;51.154;4.164;2024-03-08T08:04:49;30.60;;;22.45;;
76292;SDS011;67256;51.154;4.164;2024-03-08T08:07:14;37.15;;;23.38;;
76292;SDS011;67256;51.154;4.164;2024-03-08T08:09:40;32.88;;;22.52;;
76292;SDS011;67256;51.154;4.164;2024-03-08T08:12:08;35.00;;;23.40;;
76292;SDS011;67256;51.154;4.164;2024-03-08T08:14:37;33.55;;;21.73;;
76292;SDS011;67256;51.154;4.164;2024-03-08T08:17:04;34.45;;;23.60;;
76292;SDS011;67256;51.154;4.164;2024-03-08T08:19:30;33.90;;;23.42;;
76292;SDS011;67256;51.154;4.164;2024-03-08T08:21:57;33.42;;;23.92;;
76292;SDS011;67256;51.154;4.164;2024-03-08T08:24:23;37.47;;;23.35;;
76292;SDS011;67256;51.154;4.164;2024-03-08T08:26:49;30.90;;;22.45;;
76292;SDS011;67256;51.154;4.164;2024-03-08T08:29:15;31.52;;;22.85;;
76292;SDS011;67256;51.154;4.164;2024-03-08T08:31:41;31.88;;;23.13;;
76292;SDS011;67256;51.154;4.164;2024-03-08T08:34:08;31.15;;;21.25;;
76292;SDS011;67256;51.154;4.164;2024-03-08T08:36:36;31.08;;;20.70;;
76292;SDS011;67256;51.154;4.164;2024-03-08T08:39:04;30.95;;;21.75;;
76292;SDS011;67256;51.154;4.164;2024-03-08T08:41:30;32.55;;;21.27;;
76292;SDS011;67256;51.154;4.164;2024-03-08T08:43:57;36.13;;;22.77;;
76292;SDS011;67256;51.154;4.164;2024-03-08T08:46:24;33.95;;;21.98;;
76292;SDS011;67256;51.154;4.164;2024-03-08T08:48:51;35.47;;;21.58;;
76292;SDS011;67256;51.154;4.164;2024-03-08T08:51:17;31.73;;;22.45;;
76292;SDS011;67256;51.154;4.164;2024-03-08T08:53:43;34.65;;;22.98;;
76292;SDS011;67256;51.154;4.164;2024-03-08T08:56:10;40.47;;;23.38;;
76292;SDS011;67256;51.154;4.164;2024-03-08T08:58:38;30.63;;;21.77;;
76292;SDS011;67256;51.154;4.164;2024-03-08T09:01:05;34.83;;;22.98;;
76292;SDS011;67256;51.154;4.164;2024-03-08T09:03:32;31.42;;;20.52;;
76292;SDS011;67256;51.154;4.164;2024-03-08T09:05:59;29.75;;;21.38;;
76292;SDS011;67256;51.154;4.164;2024-03-08T09:08:27;31.75;;;20.85;;
76292;SDS011;67256;51.154;4.164;2024-03-08T09:10:53;30.00;;;21.75;;
76292;SDS011;67256;51.154;4.164;2024-03-08T09:13:19;31.63;;;21.25;;
76292;SDS011;67256;51.154;4.164;2024-03-08T09:15:45;34.10;;;21.58;;
76292;SDS011;67256;51.154;4.164;2024-03-08T09:18:11;34.03;;;21.00;;
76292;SDS011;67256;51.154;4.164;2024-03-08T09:20:36;27.48;;;19.85;;
76292;SDS011;67256;51.154;4.164;2024-03-08T09:23:02;29.15;;;19.55;;
76292;SDS011;67256;51.154;4.164;2024-03-08T09:25:29;28.67;;;20.83;;
76292;SDS011;67256;51.154;4.164;2024-03-08T09:27:56;27.67;;;19.25;;
76292;SDS011;67256;51.154;4.164;2024-03-08T09:30:22;32.10;;;21.77;;
76292;SDS011;67256;51.154;4.164;2024-03-08T09:32:47;27.92;;;19.58;;
76292;SDS011;67256;51.154;4.164;2024-03-08T09:35:16;29.40;;;20.58;;
76292;SDS011;67256;51.154;4.164;2024-03-08T09:37:41;29.48;;;20.17;;
76292;SDS011;67256;51.154;4.164;2024-03-08T09:40:07;30.88;;;20.60;;
76292;SDS011;67256;51.154;4.164;2024-03-08T09:42:41;29.50;;;20.73;;
76292;SDS011;67256;51.154;4.164;2024-03-08T09:45:09;27.80;;;20.13;;
76292;SDS011;67256;51.154;4.164;2024-03-08T09:47:36;30.20;;;19.77;;
76292;SDS011;67256;51.154;4.164;2024-03-08T09:50:07;26.88;;;19.45;;
76292;SDS011;67256;51.154;4.164;2024-03-08T09:52:37;29.67;;;19.33;;
76292;SDS011;67256;51.154;4.164;2024-03-08T09:55:08;29.17;;;18.90;;
76292;SDS011;67256;51.154;4.164;2024-03-08T09:57:36;30.33;;;19.70;;
76292;SDS011;67256;51.154;4.164;2024-03-08T10:00:04;27.90;;;19.42;;
76292;SDS011;67256;51.154;4.164;2024-03-08T10:02:46;26.65;;;19.45;;
76292;SDS011;67256;51.154;4.164;2024-03-08T10:05:12;30.57;;;19.50;;
76292;SDS011;67256;51.154;4.164;2024-03-08T10:07:39;24.50;;;18.20;;
76292;SDS011;67256;51.154;4.164;2024-03-08T10:10:05;26.85;;;19.08;;
76292;SDS011;67256;51.154;4.164;2024-03-08T10:12:33;30.15;;;18.38;;
76292;SDS011;67256;51.154;4.164;2024-03-08T10:15:00;24.30;;;17.88;;
76292;SDS011;67256;51.154;4.164;2024-03-08T10:17:26;25.17;;;18.42;;
76292;SDS011;67256;51.154;4.164;2024-03-08T10:19:52;28.55;;;18.55;;
76292;SDS011;67256;51.154;4.164;2024-03-08T10:22:18;25.50;;;17.20;;
76292;SDS011;67256;51.154;4.164;2024-03-08T10:24:45;25.63;;;17.25;;
76292;SDS011;67256;51.154;4.164;2024-03-08T10:27:11;25.98;;;17.90;;
76292;SDS011;67256;51.154;4.164;2024-03-08T10:29:37;26.38;;;18.30;;
76292;SDS011;67256;51.154;4.164;2024-03-08T10:32:08;24.48;;;17.75;;
76292;SDS011;67256;51.154;4.164;2024-03-08T10:34:34;25.60;;;18.05;;
76292;SDS011;67256;51.154;4.164;2024-03-08T10:37:02;25.08;;;17.85;;
76292;SDS011;67256;51.154;4.164;2024-03-08T10:39:33;26.23;;;18.25;;
76292;SDS011;67256;51.154;4.164;2024-03-08T10:42:02;22.42;;;16.40;;
76292;SDS011;67256;51.154;4.164;2024-03-08T10:44:37;21.35;;;16.90;;
76292;SDS011;67256;51.154;4.164;2024-03-08T10:47:19;24.45;;;17.38;;
76292;SDS011;67256;51.154;4.164;2024-03-08T10:49:54;24.25;;;16.90;;
76292;SDS011;67256;51.154;4.164;2024-03-08T10:52:37;23.55;;;16.80;;
76292;SDS011;67256;51.154;4.164;2024-03-08T10:55:04;23.88;;;17.05;;
76292;SDS011;67256;51.154;4.164;2024-03-08T10:57:37;32.35;;;17.60;;
76292;SDS011;67256;51.154;4.164;2024-03-08T11:00:04;28.27;;;17.40;;
76292;SDS011;67256;51.154;4.164;2024-03-08T11:02:37;26.10;;;17.80;;
76292;SDS011;67256;51.154;4.164;2024-03-08T11:05:03;22.20;;;16.50;;
76292;SDS011;67256;51.154;4.164;2024-03-08T11:07:34;25.80;;;16.77;;
76292;SDS011;67256;51.154;4.164;2024-03-08T11:10:03;24.23;;;16.83;;
76292;SDS011;67256;51.154;4.164;2024-03-08T11:15:01;29.98;;;16.45;;
76292;SDS011;67256;51.154;4.164;2024-03-08T11:20:14;20.85;;;15.23;;
76292;SDS011;67256;51.154;4.164;2024-03-08T11:22:42;22.60;;;16.15;;
76292;SDS011;67256;51.154;4.164;2024-03-08T11:30:44;22.58;;;16.08;;
76292;SDS011;67256;51.154;4.164;2024-03-08T11:33:28;22.90;;;15.95;;
76292;SDS011;67256;51.154;4.164;2024-03-08T11:36:11;22.73;;;16.48;;
76292;SDS011;67256;51.154;4.164;2024-03-08T11:38:41;20.63;;;14.82;;
76292;SDS011;67256;51.154;4.164;2024-03-08T11:41:13;22.33;;;15.13;;
76292;SDS011;67256;51.154;4.164;2024-03-08T11:43:46;18.83;;;13.77;;
76292;SDS011;67256;51.154;4.164;2024-03-08T11:46:13;26.50;;;14.30;;
76292;SDS011;67256;51.154;4.164;2024-03-08T11:48:40;23.40;;;15.25;;
76292;SDS011;67256;51.154;4.164;2024-03-08T11:51:08;22.75;;;14.85;;
76292;SDS011;67256;51.154;4.164;2024-03-08T11:53:34;22.25;;;15.32;;
76292;SDS011;67256;51.154;4.164;2024-03-08T11:56:10;22.67;;;16.55;;
76292;SDS011;67256;51.154;4.164;2024-03-08T11:58:38;23.85;;;16.15;;
76292;SDS011;67256;51.154;4.164;2024-03-08T12:01:08;24.35;;;16.15;;
76292;SDS011;67256;51.154;4.164;2024-03-08T12:03:39;21.27;;;13.82;;
76292;SDS011;67256;51.154;4.164;2024-03-08T12:06:07;20.73;;;14.63;;
76292;SDS011;67256;51.154;4.164;2024-03-08T12:08:38;20.83;;;14.52;;
76292;SDS011;67256;51.154;4.164;2024-03-08T12:11:04;25.77;;;15.77;;
76292;SDS011;67256;51.154;4.164;2024-03-08T12:13:31;22.00;;;15.98;;
76292;SDS011;67256;51.154;4.164;2024-03-08T12:15:59;21.48;;;15.73;;
76292;SDS011;67256;51.154;4.164;2024-03-08T12:18:28;21.50;;;15.82;;
76292;SDS011;67256;51.154;4.164;2024-03-08T12:21:09;21.63;;;15.63;;
76292;SDS011;67256;51.154;4.164;2024-03-08T12:23:37;23.25;;;16.20;;
76292;SDS011;67256;51.154;4.164;2024-03-08T12:28:41;20.70;;;14.85;;
76292;SDS011;67256;51.154;4.164;2024-03-08T12:31:09;20.33;;;15.20;;
76292;SDS011;67256;51.154;4.164;2024-03-08T12:33:37;22.20;;;14.55;;
76292;SDS011;67256;51.154;4.164;2024-03-08T12:36:14;20.42;;;15.60;;
76292;SDS011;67256;51.154;4.164;2024-03-08T12:38:43;25.15;;;15.65;;
76292;SDS011;67256;51.154;4.164;2024-03-08T12:41:13;19.65;;;15.40;;
76292;SDS011;67256;51.154;4.164;2024-03-08T12:46:14;20.92;;;13.68;;
76292;SDS011;67256;51.154;4.164;2024-03-08T12:48:46;23.55;;;15.98;;
76292;SDS011;67256;51.154;4.164;2024-03-08T12:51:15;26.20;;;15.82;;
76292;SDS011;67256;51.154;4.164;2024-03-08T12:53:43;21.77;;;15.85;;
76292;SDS011;67256;51.154;4.164;2024-03-08T12:56:09;20.45;;;15.25;;
76292;SDS011;67256;51.154;4.164;2024-03-08T12:58:36;20.05;;;14.57;;
76292;SDS011;67256;51.154;4.164;2024-03-08T13:01:03;25.35;;;16.42;;
76292;SDS011;67256;51.154;4.164;2024-03-08T13:03:33;21.15;;;14.90;;
76292;SDS011;67256;51.154;4.164;2024-03-08T13:06:01;20.25;;;14.82;;
76292;SDS011;67256;51.154;4.164;2024-03-08T13:08:34;23.10;;;15.35;;
76292;SDS011;67256;51.154;4.164;2024-03-08T13:11:09;21.02;;;15.25;;
76292;SDS011;67256;51.154;4.164;2024-03-08T13:13:39;22.10;;;14.68;;
76292;SDS011;67256;51.154;4.164;2024-03-08T13:16:05;20.63;;;13.82;;
76292;SDS011;67256;51.154;4.164;2024-03-08T13:18:34;22.98;;;15.23;;
76292;SDS011;67256;51.154;4.164;2024-03-08T13:21:00;25.15;;;15.63;;
76292;SDS011;67256;51.154;4.164;2024-03-08T13:23:33;21.45;;;15.02;;
76292;SDS011;67256;51.154;4.164;2024-03-08T13:26:06;19.85;;;14.52;;
76292;SDS011;67256;51.154;4.164;2024-03-08T13:28:32;21.67;;;15.25;;
76292;SDS011;67256;51.154;4.164;2024-03-08T13:36:01;19.98;;;15.18;;
76292;SDS011;67256;51.154;4.164;2024-03-08T13:38:29;21.13;;;14.40;;
76292;SDS011;67256;51.154;4.164;2024-03-08T13:40:57;21.55;;;15.55;;
76292;SDS011;67256;51.154;4.164;2024-03-08T13:43:23;23.73;;;16.00;;
76292;SDS011;67256;51.154;4.164;2024-03-08T13:45:49;20.92;;;15.43;;
76292;SDS011;67256;51.154;4.164;2024-03-08T13:48:15;24.20;;;15.88;;
76292;SDS011;67256;51.154;4.164;2024-03-08T13:50:41;36.28;;;16.13;;
76292;SDS011;67256;51.154;4.164;2024-03-08T13:53:07;24.65;;;16.00;;
76292;SDS011;67256;51.154;4.164;2024-03-08T13:55:35;21.30;;;16.63;;
76292;SDS011;67256;51.154;4.164;2024-03-08T13:58:01;19.50;;;14.75;;
76292;SDS011;67256;51.154;4.164;2024-03-08T14:00:27;22.75;;;15.30;;
76292;SDS011;67256;51.154;4.164;2024-03-08T14:02:58;25.27;;;16.02;;
76292;SDS011;67256;51.154;4.164;2024-03-08T14:05:24;25.55;;;15.40;;
76292;SDS011;67256;51.154;4.164;2024-03-08T14:07:50;27.83;;;16.20;;
76292;SDS011;67256;51.154;4.164;2024-03-08T14:10:19;21.17;;;15.88;;
76292;SDS011;67256;51.154;4.164;2024-03-08T14:12:47;20.48;;;14.75;;
76292;SDS011;67256;51.154;4.164;2024-03-08T14:15:15;24.30;;;17.35;;
76292;SDS011;67256;51.154;4.164;2024-03-08T14:17:41;30.35;;;16.50;;
76292;SDS011;67256;51.154;4.164;2024-03-08T14:20:07;21.23;;;15.30;;
76292;SDS011;67256;51.154;4.164;2024-03-08T14:22:34;22.48;;;15.63;;
76292;SDS011;67256;51.154;4.164;2024-03-08T14:25:00;23.85;;;15.88;;
76292;SDS011;67256;51.154;4.164;2024-03-08T14:27:26;20.98;;;16.38;;
76292;SDS011;67256;51.154;4.164;2024-03-08T14:29:52;23.58;;;15.40;;
76292;SDS011;67256;51.154;4.164;2024-03-08T14:32:19;27.60;;;16.10;;
76292;SDS011;67256;51.154;4.164;2024-03-08T14:34:47;19.52;;;14.75;;
76292;SDS011;67256;51.154;4.164;2024-03-08T14:37:14;26.50;;;15.45;;
76292;SDS011;67256;51.154;4.164;2024-03-08T14:39:40;23.30;;;15.30;;
76292;SDS011;67256;51.154;4.164;2024-03-08T14:42:06;21.15;;;16.05;;
76292;SDS011;67256;51.154;4.164;2024-03-08T14:44:33;23.00;;;15.05;;
76292;SDS011;67256;51.154;4.164;2024-03-08T14:46:59;20.77;;;14.98;;